sensor_id;sensor_type;location;lat;lon;timestamp;temperature;humidity
38854;DHT22;24606;51.992;4.198;2023-06-26T00:01:40;29.90;58.40
38854;DHT22;24606;51.992;4.198;2023-06-26T00:06:43;30.50;58.20
38854;DHT22;24606;51.992;4.198;2023-06-26T00:11:46;29.50;56.90
38854;DHT22;24606;51.992;4.198;2023-06-26T00:16:48;29.10;62.60
38854;DHT22;24606;51.992;4.198;2023-06-26T00:21:50;29.00;64.40
38854;DHT22;24606;51.992;4.198;2023-06-26T00:26:54;30.00;63.00
38854;DHT22;24606;51.992;4.198;2023-06-26T00:31:55;30.60;55.60
38854;DHT22;24606;51.992;4.198;2023-06-26T00:36:57;28.50;60.50
38854;DHT22;24606;51.992;4.198;2023-06-26T00:42:02;27.20;67.00
38854;DHT22;24606;51.992;4.198;2023-06-26T00:47:04;29.60;57.40
38854;DHT22;24606;51.992;4.198;2023-06-26T00:52:06;28.20;62.10
38854;DHT22;24606;51.992;4.198;2023-06-26T00:57:09;26.80;65.40
38854;DHT22;24606;51.992;4.198;2023-06-26T01:02:11;28.90;65.50
38854;DHT22;24606;51.992;4.198;2023-06-26T01:07:21;27.00;64.70
38854;DHT22;24606;51.992;4.198;2023-06-26T01:12:25;28.40;62.80
38854;DHT22;24606;51.992;4.198;2023-06-26T01:17:27;28.40;61.60
38854;DHT22;24606;51.992;4.198;2023-06-26T01:22:37;28.90;61.90
38854;DHT22;24606;51.992;4.198;2023-06-26T01:27:48;28.40;59.80
38854;DHT22;24606;51.992;4.198;2023-06-26T01:32:52;29.10;64.10
38854;DHT22;24606;51.992;4.198;2023-06-26T01:38:11;27.80;68.30
38854;DHT22;24606;51.992;4.198;2023-06-26T01:43:20;26.60;69.20
38854;DHT22;24606;51.992;4.198;2023-06-26T01:48:30;27.00;71.60
38854;DHT22;24606;51.992;4.198;2023-06-26T01:53:36;27.90;69.10
38854;DHT22;24606;51.992;4.198;2023-06-26T01:58:44;26.40;73.20
38854;DHT22;24606;51.992;4.198;2023-06-26T02:03:47;27.70;66.80
38854;DHT22;24606;51.992;4.198;2023-06-26T02:08:49;26.50;67.10
38854;DHT22;24606;51.992;4.198;2023-06-26T02:13:52;26.20;75.50
38854;DHT22;24606;51.992;4.198;2023-06-26T02:18:56;28.30;62.60
38854;DHT22;24606;51.992;4.198;2023-06-26T02:23:58;28.10;65.60
38854;DHT22;24606;51.992;4.198;2023-06-26T02:29:03;26.50;73.30
38854;DHT22;24606;51.992;4.198;2023-06-26T02:34:05;27.90;64.60
38854;DHT22;24606;51.992;4.198;2023-06-26T02:39:07;27.50;66.80
38854;DHT22;24606;51.992;4.198;2023-06-26T02:44:10;27.80;61.50
38854;DHT22;24606;51.992;4.198;2023-06-26T02:49:12;28.60;61.10
38854;DHT22;24606;51.992;4.198;2023-06-26T02:54:14;28.90;61.90
38854;DHT22;24606;51.992;4.198;2023-06-26T03:15:29;28.60;59.90
38854;DHT22;24606;51.992;4.198;2023-06-26T03:20:31;29.80;59.10
38854;DHT22;24606;51.992;4.198;2023-06-26T03:25:33;29.10;58.40
38854;DHT22;24606;51.992;4.198;2023-06-26T03:30:36;29.60;58.90
38854;DHT22;24606;51.992;4.198;2023-06-26T03:35:37;29.40;60.30
38854;DHT22;24606;51.992;4.198;2023-06-26T03:40:39;28.20;61.40
38854;DHT22;24606;51.992;4.198;2023-06-26T03:45:42;30.50;57.60
38854;DHT22;24606;51.992;4.198;2023-06-26T03:50:45;30.80;55.50
38854;DHT22;24606;51.992;4.198;2023-06-26T03:55:47;29.20;59.10
38854;DHT22;24606;51.992;4.198;2023-06-26T04:00:50;27.80;60.00
38854;DHT22;24606;51.992;4.198;2023-06-26T04:05:52;28.00;63.90
38854;DHT22;24606;51.992;4.198;2023-06-26T04:10:54;28.10;58.10
38854;DHT22;24606;51.992;4.198;2023-06-26T04:15:59;26.10;66.30
38854;DHT22;24606;51.992;4.198;2023-06-26T04:21:07;27.90;63.00
38854;DHT22;24606;51.992;4.198;2023-06-26T04:26:09;28.80;60.70
38854;DHT22;24606;51.992;4.198;2023-06-26T04:31:15;27.30;64.70
38854;DHT22;24606;51.992;4.198;2023-06-26T04:36:17;25.90;63.70
38854;DHT22;24606;51.992;4.198;2023-06-26T04:41:19;26.40;68.40
38854;DHT22;24606;51.992;4.198;2023-06-26T04:46:22;27.10;67.80
38854;DHT22;24606;51.992;4.198;2023-06-26T04:51:25;27.10;62.40
38854;DHT22;24606;51.992;4.198;2023-06-26T04:56:27;26.50;71.00
38854;DHT22;24606;51.992;4.198;2023-06-26T05:01:32;25.10;75.30
38854;DHT22;24606;51.992;4.198;2023-06-26T05:06:34;25.10;73.50
38854;DHT22;24606;51.992;4.198;2023-06-26T05:11:36;26.90;67.10
38854;DHT22;24606;51.992;4.198;2023-06-26T05:16:39;28.30;61.70
38854;DHT22;24606;51.992;4.198;2023-06-26T05:21:41;28.70;59.20
38854;DHT22;24606;51.992;4.198;2023-06-26T05:26:44;25.00;60.10
38854;DHT22;24606;51.992;4.198;2023-06-26T05:31:48;26.30;69.60
38854;DHT22;24606;51.992;4.198;2023-06-26T05:36:51;26.90;67.40
38854;DHT22;24606;51.992;4.198;2023-06-26T05:41:53;25.80;61.30
38854;DHT22;24606;51.992;4.198;2023-06-26T05:46:57;28.10;56.50
38854;DHT22;24606;51.992;4.198;2023-06-26T05:51:59;26.70;55.70
38854;DHT22;24606;51.992;4.198;2023-06-26T05:57:02;26.50;55.50
38854;DHT22;24606;51.992;4.198;2023-06-26T06:02:06;24.90;74.00
38854;DHT22;24606;51.992;4.198;2023-06-26T06:07:08;26.50;67.50
38854;DHT22;24606;51.992;4.198;2023-06-26T06:12:10;26.50;66.10
38854;DHT22;24606;51.992;4.198;2023-06-26T06:17:13;24.40;62.30
38854;DHT22;24606;51.992;4.198;2023-06-26T06:22:15;24.70;63.60
38854;DHT22;24606;51.992;4.198;2023-06-26T06:27:18;25.70;61.40
38854;DHT22;24606;51.992;4.198;2023-06-26T06:32:21;26.80;60.50
38854;DHT22;24606;51.992;4.198;2023-06-26T06:37:23;27.60;56.80
38854;DHT22;24606;51.992;4.198;2023-06-26T06:42:25;27.00;56.70
38854;DHT22;24606;51.992;4.198;2023-06-26T06:47:28;26.50;59.10
38854;DHT22;24606;51.992;4.198;2023-06-26T06:52:30;27.80;58.10
38854;DHT22;24606;51.992;4.198;2023-06-26T06:57:32;23.90;69.70
38854;DHT22;24606;51.992;4.198;2023-06-26T07:02:38;25.10;67.20
38854;DHT22;24606;51.992;4.198;2023-06-26T07:07:40;24.70;66.10
38854;DHT22;24606;51.992;4.198;2023-06-26T07:12:42;25.70;59.60
38854;DHT22;24606;51.992;4.198;2023-06-26T07:17:45;26.90;61.30
38854;DHT22;24606;51.992;4.198;2023-06-26T07:22:48;24.90;68.70
38854;DHT22;24606;51.992;4.198;2023-06-26T07:27:50;24.90;68.70
38854;DHT22;24606;51.992;4.198;2023-06-26T07:32:53;25.10;67.50
38854;DHT22;24606;51.992;4.198;2023-06-26T07:37:55;24.50;73.80
38854;DHT22;24606;51.992;4.198;2023-06-26T07:42:57;25.10;63.80
38854;DHT22;24606;51.992;4.198;2023-06-26T07:48:01;26.50;61.20
38854;DHT22;24606;51.992;4.198;2023-06-26T07:53:03;24.40;64.10
38854;DHT22;24606;51.992;4.198;2023-06-26T07:58:06;24.50;71.10
38854;DHT22;24606;51.992;4.198;2023-06-26T08:03:10;25.40;61.30
38854;DHT22;24606;51.992;4.198;2023-06-26T08:08:12;22.70;79.00
38854;DHT22;24606;51.992;4.198;2023-06-26T08:13:14;23.90;63.70
38854;DHT22;24606;51.992;4.198;2023-06-26T08:18:18;24.30;68.00
38854;DHT22;24606;51.992;4.198;2023-06-26T08:23:19;22.70;69.00
38854;DHT22;24606;51.992;4.198;2023-06-26T08:28:22;23.70;73.50
38854;DHT22;24606;51.992;4.198;2023-06-26T08:33:25;24.70;70.30
38854;DHT22;24606;51.992;4.198;2023-06-26T08:38:27;24.80;58.60
38854;DHT22;24606;51.992;4.198;2023-06-26T08:43:30;25.50;61.50
38854;DHT22;24606;51.992;4.198;2023-06-26T08:48:33;23.50;69.40
38854;DHT22;24606;51.992;4.198;2023-06-26T08:53:42;25.10;61.60
38854;DHT22;24606;51.992;4.198;2023-06-26T08:58:45;23.70;63.10
38854;DHT22;24606;51.992;4.198;2023-06-26T09:03:48;23.60;70.50
38854;DHT22;24606;51.992;4.198;2023-06-26T09:08:50;23.20;67.80
38854;DHT22;24606;51.992;4.198;2023-06-26T09:13:53;23.10;70.20
38854;DHT22;24606;51.992;4.198;2023-06-26T09:18:58;23.20;74.70
38854;DHT22;24606;51.992;4.198;2023-06-26T09:24:00;25.60;65.60
38854;DHT22;24606;51.992;4.198;2023-06-26T09:29:02;24.40;69.50
38854;DHT22;24606;51.992;4.198;2023-06-26T09:34:06;24.60;67.60
38854;DHT22;24606;51.992;4.198;2023-06-26T09:39:08;23.40;64.80
38854;DHT22;24606;51.992;4.198;2023-06-26T09:44:14;24.20;70.20
38854;DHT22;24606;51.992;4.198;2023-06-26T09:49:17;22.30;65.70
38854;DHT22;24606;51.992;4.198;2023-06-26T09:54:21;23.60;74.80
38854;DHT22;24606;51.992;4.198;2023-06-26T09:59:23;24.10;69.20
38854;DHT22;24606;51.992;4.198;2023-06-26T10:04:27;25.00;61.70
38854;DHT22;24606;51.992;4.198;2023-06-26T10:09:37;23.30;72.10
38854;DHT22;24606;51.992;4.198;2023-06-26T10:14:52;23.80;67.00
38854;DHT22;24606;51.992;4.198;2023-06-26T10:20:09;25.90;61.90
38854;DHT22;24606;51.992;4.198;2023-06-26T10:25:51;25.20;62.60
38854;DHT22;24606;51.992;4.198;2023-06-26T10:30:53;23.30;70.50
38854;DHT22;24606;51.992;4.198;2023-06-26T10:36:13;25.50;57.50
38854;DHT22;24606;51.992;4.198;2023-06-26T10:41:15;24.80;56.90
38854;DHT22;24606;51.992;4.198;2023-06-26T10:46:21;25.40;58.10
38854;DHT22;24606;51.992;4.198;2023-06-26T10:51:25;24.70;64.50
38854;DHT22;24606;51.992;4.198;2023-06-26T10:56:44;24.70;63.70
38854;DHT22;24606;51.992;4.198;2023-06-26T11:01:46;23.50;70.00
38854;DHT22;24606;51.992;4.198;2023-06-26T11:07:14;25.90;60.50
38854;DHT22;24606;51.992;4.198;2023-06-26T11:12:34;25.70;59.50
38854;DHT22;24606;51.992;4.198;2023-06-26T11:17:37;24.50;65.90
38854;DHT22;24606;51.992;4.198;2023-06-26T11:22:41;24.10;60.10
38854;DHT22;24606;51.992;4.198;2023-06-26T11:27:44;26.40;56.40
38854;DHT22;24606;51.992;4.198;2023-06-26T11:32:45;27.10;58.00
38854;DHT22;24606;51.992;4.198;2023-06-26T11:37:49;26.80;54.50
38854;DHT22;24606;51.992;4.198;2023-06-26T11:42:51;25.40;59.40
38854;DHT22;24606;51.992;4.198;2023-06-26T11:47:54;25.60;63.50
38854;DHT22;24606;51.992;4.198;2023-06-26T11:52:59;26.10;57.10
38854;DHT22;24606;51.992;4.198;2023-06-26T11:58:02;25.40;60.30
38854;DHT22;24606;51.992;4.198;2023-06-26T12:03:04;25.70;60.30
38854;DHT22;24606;51.992;4.198;2023-06-26T12:08:08;25.80;57.70
38854;DHT22;24606;51.992;4.198;2023-06-26T12:13:11;26.10;60.40
38854;DHT22;24606;51.992;4.198;2023-06-26T12:18:13;26.10;54.10
38854;DHT22;24606;51.992;4.198;2023-06-26T12:23:16;26.20;62.30
38854;DHT22;24606;51.992;4.198;2023-06-26T12:28:18;25.00;64.30
38854;DHT22;24606;51.992;4.198;2023-06-26T12:33:20;24.30;67.40
38854;DHT22;24606;51.992;4.198;2023-06-26T12:38:32;25.50;64.80
38854;DHT22;24606;51.992;4.198;2023-06-26T12:43:38;24.20;63.60
38854;DHT22;24606;51.992;4.198;2023-06-26T12:48:41;26.00;57.80
38854;DHT22;24606;51.992;4.198;2023-06-26T12:53:48;25.10;62.50
38854;DHT22;24606;51.992;4.198;2023-06-26T12:58:50;25.00;62.00
38854;DHT22;24606;51.992;4.198;2023-06-26T13:03:52;24.20;64.80
38854;DHT22;24606;51.992;4.198;2023-06-26T13:08:55;24.30;57.90
38854;DHT22;24606;51.992;4.198;2023-06-26T13:13:57;24.80;70.50
38854;DHT22;24606;51.992;4.198;2023-06-26T13:19:00;26.30;53.90
38854;DHT22;24606;51.992;4.198;2023-06-26T13:24:04;26.50;62.30
38854;DHT22;24606;51.992;4.198;2023-06-26T13:29:06;27.50;58.60
38854;DHT22;24606;51.992;4.198;2023-06-26T13:34:08;25.60;57.70
38854;DHT22;24606;51.992;4.198;2023-06-26T13:39:12;26.80;52.70
38854;DHT22;24606;51.992;4.198;2023-06-26T13:44:14;25.90;57.30
38854;DHT22;24606;51.992;4.198;2023-06-26T13:49:16;25.70;53.50
38854;DHT22;24606;51.992;4.198;2023-06-26T13:54:19;25.70;59.80
38854;DHT22;24606;51.992;4.198;2023-06-26T13:59:20;27.30;57.40
38854;DHT22;24606;51.992;4.198;2023-06-26T14:04:22;25.70;55.80
38854;DHT22;24606;51.992;4.198;2023-06-26T14:09:26;26.30;59.10
38854;DHT22;24606;51.992;4.198;2023-06-26T14:14:27;27.50;52.80
38854;DHT22;24606;51.992;4.198;2023-06-26T14:19:29;28.30;54.40
38854;DHT22;24606;51.992;4.198;2023-06-26T14:24:32;27.20;55.30
38854;DHT22;24606;51.992;4.198;2023-06-26T14:29:35;27.00;62.60
38854;DHT22;24606;51.992;4.198;2023-06-26T14:34:39;27.90;58.30
38854;DHT22;24606;51.992;4.198;2023-06-26T14:39:43;27.80;52.30
38854;DHT22;24606;51.992;4.198;2023-06-26T14:44:44;29.50;54.40
38854;DHT22;24606;51.992;4.198;2023-06-26T14:49:47;28.30;49.70
38854;DHT22;24606;51.992;4.198;2023-06-26T14:54:50;27.90;56.30
38854;DHT22;24606;51.992;4.198;2023-06-26T14:59:52;29.80;54.90
38854;DHT22;24606;51.992;4.198;2023-06-26T15:04:54;29.50;53.90
38854;DHT22;24606;51.992;4.198;2023-06-26T15:09:57;28.30;54.60
38854;DHT22;24606;51.992;4.198;2023-06-26T15:14:59;28.30;55.40
38854;DHT22;24606;51.992;4.198;2023-06-26T15:20:01;29.50;58.10
38854;DHT22;24606;51.992;4.198;2023-06-26T15:25:06;30.60;57.40
38854;DHT22;24606;51.992;4.198;2023-06-26T15:30:08;30.20;54.10
38854;DHT22;24606;51.992;4.198;2023-06-26T15:35:10;29.90;55.50
38854;DHT22;24606;51.992;4.198;2023-06-26T15:40:14;29.60;52.90
38854;DHT22;24606;51.992;4.198;2023-06-26T15:45:16;30.90;57.50
38854;DHT22;24606;51.992;4.198;2023-06-26T15:50:19;31.70;56.00
38854;DHT22;24606;51.992;4.198;2023-06-26T15:55:22;31.00;50.60
38854;DHT22;24606;51.992;4.198;2023-06-26T16:00:24;30.40;47.60
38854;DHT22;24606;51.992;4.198;2023-06-26T16:05:26;30.80;45.60
38854;DHT22;24606;51.992;4.198;2023-06-26T16:10:29;31.10;53.80
38854;DHT22;24606;51.992;4.198;2023-06-26T16:15:31;31.40;56.90
38854;DHT22;24606;51.992;4.198;2023-06-26T16:20:33;32.00;55.40
38854;DHT22;24606;51.992;4.198;2023-06-26T16:25:37;31.40;53.60
38854;DHT22;24606;51.992;4.198;2023-06-26T16:30:39;31.90;57.10
38854;DHT22;24606;51.992;4.198;2023-06-26T16:35:41;32.60;55.40
38854;DHT22;24606;51.992;4.198;2023-06-26T16:40:44;31.90;54.20
38854;DHT22;24606;51.992;4.198;2023-06-26T16:45:46;31.30;47.60
38854;DHT22;24606;51.992;4.198;2023-06-26T16:50:48;31.00;51.40
38854;DHT22;24606;51.992;4.198;2023-06-26T16:55:52;32.30;53.10
38854;DHT22;24606;51.992;4.198;2023-06-26T17:00:54;33.10;48.10
38854;DHT22;24606;51.992;4.198;2023-06-26T17:05:56;31.60;51.00
38854;DHT22;24606;51.992;4.198;2023-06-26T17:10:59;33.10;52.40
38854;DHT22;24606;51.992;4.198;2023-06-26T17:16:01;33.00;50.40
38854;DHT22;24606;51.992;4.198;2023-06-26T17:21:02;32.60;45.40
38854;DHT22;24606;51.992;4.198;2023-06-26T17:26:06;32.40;46.50
38854;DHT22;24606;51.992;4.198;2023-06-26T17:31:08;33.00;49.50
38854;DHT22;24606;51.992;4.198;2023-06-26T17:36:09;33.60;48.50
38854;DHT22;24606;51.992;4.198;2023-06-26T17:41:13;33.50;48.90
38854;DHT22;24606;51.992;4.198;2023-06-26T17:46:16;33.90;47.90
38854;DHT22;24606;51.992;4.198;2023-06-26T17:51:18;32.80;50.20
38854;DHT22;24606;51.992;4.198;2023-06-26T17:56:21;32.90;47.00
38854;DHT22;24606;51.992;4.198;2023-06-26T18:01:23;33.00;47.70
38854;DHT22;24606;51.992;4.198;2023-06-26T18:06:25;32.80;45.10
38854;DHT22;24606;51.992;4.198;2023-06-26T18:11:28;33.30;48.70
38854;DHT22;24606;51.992;4.198;2023-06-26T18:16:30;33.50;47.80
38854;DHT22;24606;51.992;4.198;2023-06-26T18:21:32;33.90;46.80
38854;DHT22;24606;51.992;4.198;2023-06-26T18:26:35;33.90;47.10
38854;DHT22;24606;51.992;4.198;2023-06-26T18:31:37;34.10;45.20
38854;DHT22;24606;51.992;4.198;2023-06-26T18:36:40;33.70;46.90
38854;DHT22;24606;51.992;4.198;2023-06-26T18:41:43;33.40;48.30
38854;DHT22;24606;51.992;4.198;2023-06-26T18:46:45;32.90;48.20
38854;DHT22;24606;51.992;4.198;2023-06-26T18:51:47;32.30;48.40
38854;DHT22;24606;51.992;4.198;2023-06-26T18:56:51;33.30;47.70
38854;DHT22;24606;51.992;4.198;2023-06-26T19:01:55;33.60;47.40
38854;DHT22;24606;51.992;4.198;2023-06-26T19:06:57;31.90;49.80
38854;DHT22;24606;51.992;4.198;2023-06-26T19:12:01;32.90;48.30
38854;DHT22;24606;51.992;4.198;2023-06-26T19:17:03;32.60;46.80
38854;DHT22;24606;51.992;4.198;2023-06-26T19:22:05;33.40;47.00
38854;DHT22;24606;51.992;4.198;2023-06-26T19:27:09;33.40;46.90
38854;DHT22;24606;51.992;4.198;2023-06-26T19:32:10;33.50;47.00
38854;DHT22;24606;51.992;4.198;2023-06-26T19:37:12;33.20;46.70
38854;DHT22;24606;51.992;4.198;2023-06-26T19:42:16;33.30;46.70
38854;DHT22;24606;51.992;4.198;2023-06-26T19:47:17;33.00;47.10
38854;DHT22;24606;51.992;4.198;2023-06-26T19:52:19;33.20;46.50
38854;DHT22;24606;51.992;4.198;2023-06-26T19:57:22;33.10;46.50
38854;DHT22;24606;51.992;4.198;2023-06-26T20:02:26;33.10;46.50
38854;DHT22;24606;51.992;4.198;2023-06-26T20:07:28;33.10;46.40
38854;DHT22;24606;51.992;4.198;2023-06-26T20:12:31;32.90;46.10
38854;DHT22;24606;51.992;4.198;2023-06-26T20:17:33;32.80;46.50
38854;DHT22;24606;51.992;4.198;2023-06-26T20:22:35;32.80;46.20
38854;DHT22;24606;51.992;4.198;2023-06-26T20:27:39;32.70;46.20
38854;DHT22;24606;51.992;4.198;2023-06-26T20:32:41;32.60;46.10
38854;DHT22;24606;51.992;4.198;2023-06-26T20:37:43;32.40;46.40
38854;DHT22;24606;51.992;4.198;2023-06-26T20:42:47;32.10;45.60
38854;DHT22;24606;51.992;4.198;2023-06-26T20:47:49;32.40;46.40
38854;DHT22;24606;51.992;4.198;2023-06-26T20:52:51;32.40;46.30
38854;DHT22;24606;51.992;4.198;2023-06-26T20:57:55;32.30;46.20
38854;DHT22;24606;51.992;4.198;2023-06-26T21:02:57;32.20;46.30
38854;DHT22;24606;51.992;4.198;2023-06-26T21:07:59;32.10;46.50
38854;DHT22;24606;51.992;4.198;2023-06-26T21:13:03;31.60;47.00
38854;DHT22;24606;51.992;4.198;2023-06-26T21:18:04;31.80;46.80
38854;DHT22;24606;51.992;4.198;2023-06-26T21:23:06;31.20;47.70
38854;DHT22;24606;51.992;4.198;2023-06-26T21:28:09;31.50;47.30
38854;DHT22;24606;51.992;4.198;2023-06-26T21:33:12;31.70;46.90
38854;DHT22;24606;51.992;4.198;2023-06-26T21:38:13;31.70;46.80
38854;DHT22;24606;51.992;4.198;2023-06-26T21:43:17;31.60;46.90
38854;DHT22;24606;51.992;4.198;2023-06-26T21:48:19;31.70;46.90
38854;DHT22;24606;51.992;4.198;2023-06-26T21:53:21;31.70;47.00
38854;DHT22;24606;51.992;4.198;2023-06-26T21:58:25;31.60;47.10
38854;DHT22;24606;51.992;4.198;2023-06-26T22:03:26;31.50;47.20
38854;DHT22;24606;51.992;4.198;2023-06-26T22:08:30;31.50;47.10
38854;DHT22;24606;51.992;4.198;2023-06-26T22:13:33;31.20;47.30
38854;DHT22;24606;51.992;4.198;2023-06-26T22:18:35;31.30;47.30
38854;DHT22;24606;51.992;4.198;2023-06-26T22:23:37;31.20;47.30
38854;DHT22;24606;51.992;4.198;2023-06-26T22:28:41;31.20;47.30
38854;DHT22;24606;51.992;4.198;2023-06-26T22:33:45;31.20;47.30
38854;DHT22;24606;51.992;4.198;2023-06-26T22:38:47;31.10;47.50
38854;DHT22;24606;51.992;4.198;2023-06-26T22:43:50;30.90;47.60
38854;DHT22;24606;51.992;4.198;2023-06-26T22:48:52;30.40;48.10
38854;DHT22;24606;51.992;4.198;2023-06-26T22:53:54;29.10;50.70
38854;DHT22;24606;51.992;4.198;2023-06-26T22:58:57;29.50;47.10
38854;DHT22;24606;51.992;4.198;2023-06-26T23:03:59;29.00;49.20
38854;DHT22;24606;51.992;4.198;2023-06-26T23:09:01;29.40;49.40
38854;DHT22;24606;51.992;4.198;2023-06-26T23:14:04;29.30;49.90
38854;DHT22;24606;51.992;4.198;2023-06-26T23:19:06;29.60;49.60
38854;DHT22;24606;51.992;4.198;2023-06-26T23:24:08;28.60;50.90
38854;DHT22;24606;51.992;4.198;2023-06-26T23:29:12;29.20;49.70
38854;DHT22;24606;51.992;4.198;2023-06-26T23:34:14;29.60;49.40
38854;DHT22;24606;51.992;4.198;2023-06-26T23:39:19;28.40;49.50
38854;DHT22;24606;51.992;4.198;2023-06-26T23:44:22;28.80;50.60
38854;DHT22;24606;51.992;4.198;2023-06-26T23:49:24;29.00;49.60
38854;DHT22;24606;51.992;4.198;2023-06-26T23:54:26;29.20;49.70
38854;DHT22;24606;51.992;4.198;2023-06-26T23:59:29;29.90;49.00
